Time;durP1;ratioP1;P1;durP2;ratioP2;P2;SDS_P1;SDS_P2;PMS_P1;PMS_P2;Temp;Humidity;BMP_temperature;BMP_pressure;BME280_temperature;BME280_humidity;BME280_pressure;Samples;Min_cycle;Max_cycle;Signal;HPM_P1;HPM_P2
2021/03/12 00:01:47;;;;;;;4.97;3.40;;;-12.60;78.50;;;;;;4377800;32;20501;-58
2021/03/12 00:04:13;;;;;;;4.55;3.00;;;-12.50;78.70;;;;;;4390527;32;20078;-57
2021/03/12 00:06:39;;;;;;;5.72;3.37;;;-12.50;78.30;;;;;;4367807;32;20503;-58
2021/03/12 00:09:06;;;;;;;5.60;3.22;;;-12.40;78.00;;;;;;4378040;32;20072;-57
2021/03/12 00:11:32;;;;;;;4.43;3.10;;;-12.50;78.00;;;;;;4390481;32;20489;-57
2021/03/12 00:13:58;;;;;;;5.47;3.10;;;-12.50;78.60;;;;;;4390077;32;20071;-58
2021/03/12 00:16:24;;;;;;;5.47;3.15;;;-12.50;78.10;;;;;;4390155;32;20073;-58
2021/03/12 00:18:50;;;;;;;5.87;3.08;;;-12.50;78.10;;;;;;4389573;32;20055;-57
2021/03/12 00:21:16;;;;;;;4.95;2.95;;;-12.50;78.30;;;;;;4389975;32;20580;-57
2021/03/12 00:23:43;;;;;;;5.80;3.35;;;-12.60;78.40;;;;;;4377470;32;20214;-58
2021/03/12 00:26:10;;;;;;;4.50;3.08;;;-12.60;78.70;;;;;;4366929;32;20436;-58
2021/03/12 00:28:36;;;;;;;5.28;3.35;;;-12.70;78.20;;;;;;4367717;32;20077;-58
2021/03/12 00:31:04;;;;;;;5.37;2.97;;;-12.90;79.00;;;;;;4368040;32;20151;-58
2021/03/12 00:33:30;;;;;;;6.22;3.40;;;-12.80;79.40;;;;;;4374644;32;20062;-57
2021/03/12 00:35:56;;;;;;;4.70;3.10;;;-12.80;79.30;;;;;;4358255;32;20069;-58
2021/03/12 00:38:23;;;;;;;5.20;3.15;;;-12.90;79.40;;;;;;4377547;32;20499;-57
2021/03/12 00:40:51;;;;;;;6.20;3.37;;;-12.80;79.60;;;;;;4364715;32;20449;-57
2021/03/12 00:43:18;;;;;;;5.57;3.47;;;-12.90;79.80;;;;;;4365082;32;20130;-57
2021/03/12 00:45:46;;;;;;;6.68;3.55;;;-12.90;79.30;;;;;;4352359;32;20070;-57
2021/03/12 00:48:13;;;;;;;6.37;3.37;;;-12.80;80.10;;;;;;4369275;32;20066;-59
2021/03/12 00:50:40;;;;;;;4.90;3.25;;;-12.50;79.20;;;;;;4366496;32;20094;-57
2021/03/12 00:53:06;;;;;;;6.32;3.72;;;-12.30;78.00;;;;;;4367621;32;20164;-58
2021/03/12 00:55:33;;;;;;;6.30;3.08;;;-12.40;77.90;;;;;;4392134;32;20517;-57
2021/03/12 00:57:59;;;;;;;5.28;3.40;;;-12.30;78.00;;;;;;4379655;32;20150;-58
2021/03/12 01:00:27;;;;;;;5.03;3.33;;;-12.40;77.60;;;;;;4379876;32;20065;-57
2021/03/12 01:02:53;;;;;;;5.35;3.00;;;-12.80;77.70;;;;;;4387074;32;20089;-57
2021/03/12 01:05:20;;;;;;;4.82;3.05;;;-12.70;79.30;;;;;;4391449;32;20074;-59
2021/03/12 01:07:46;;;;;;;4.40;2.92;;;-12.40;78.10;;;;;;4381396;32;20072;-57
2021/03/12 01:10:14;;;;;;;6.05;3.65;;;-12.90;78.30;;;;;;4377179;32;20464;-57
2021/03/12 01:12:40;;;;;;;5.87;3.50;;;-12.90;79.50;;;;;;4394987;32;20063;-57
2021/03/12 01:15:10;;;;;;;4.70;3.37;;;-12.40;78.50;;;;;;4390612;32;20073;-58
2021/03/12 01:17:36;;;;;;;5.28;3.45;;;-12.40;78.10;;;;;;4364407;32;20093;-57
2021/03/12 01:20:09;;;;;;;6.00;3.20;;;-12.80;77.90;;;;;;4377217;32;20161;-58
2021/03/12 01:22:35;;;;;;;6.20;3.33;;;-12.70;79.40;;;;;;4389636;32;20061;-57
2021/03/12 01:25:05;;;;;;;6.97;3.22;;;-12.60;78.70;;;;;;4390078;32;20094;-57
2021/03/12 01:27:38;;;;;;;5.53;3.30;;;-12.60;78.80;;;;;;4357672;32;20085;-58
2021/03/12 01:30:20;;;;;;;4.72;3.40;;;-12.90;78.90;;;;;;4377963;32;20074;-58
2021/03/12 01:32:46;;;;;;;7.30;3.62;;;-12.80;79.80;;;;;;4364954;32;20082;-57
2021/03/12 01:35:13;;;;;;;6.12;3.03;;;-12.80;79.60;;;;;;4377267;32;20518;-57
2021/03/12 01:37:39;;;;;;;4.90;3.30;;;-12.70;79.30;;;;;;4376954;32;20070;-58
2021/03/12 01:40:12;;;;;;;5.50;3.30;;;-12.80;79.50;;;;;;4365012;32;20250;-57
2021/03/12 01:42:38;;;;;;;4.90;3.00;;;-12.80;79.90;;;;;;4389336;32;20115;-57
2021/03/12 01:45:10;;;;;;;5.68;3.47;;;-12.80;80.20;;;;;;4376686;32;20173;-58
2021/03/12 01:47:37;;;;;;;5.30;2.80;;;-12.90;79.90;;;;;;4367442;32;20452;-58
2021/03/12 01:50:05;;;;;;;5.70;3.40;;;-12.70;80.30;;;;;;4381325;32;20066;-58
2021/03/12 01:52:32;;;;;;;5.37;2.97;;;-12.70;79.90;;;;;;4390843;32;20155;-58
2021/03/12 01:54:58;;;;;;;5.50;3.30;;;-12.70;79.60;;;;;;4392220;32;20519;-59
2021/03/12 01:57:24;;;;;;;6.12;3.47;;;-12.90;80.00;;;;;;4383454;32;20181;-57
2021/03/12 01:59:50;;;;;;;4.93;3.22;;;-12.90;80.40;;;;;;4358310;32;20219;-58
2021/03/12 02:02:16;;;;;;;4.93;3.40;;;-12.70;80.70;;;;;;4354801;32;20162;-57
2021/03/12 02:04:43;;;;;;;7.65;3.15;;;-12.70;80.60;;;;;;4394936;32;20069;-58
2021/03/12 02:07:09;;;;;;;4.87;3.45;;;-12.70;80.20;;;;;;4376277;32;20529;-58
2021/03/12 02:09:35;;;;;;;5.45;3.40;;;-12.50;79.90;;;;;;4381311;32;20066;-58
2021/03/12 02:12:19;;;;;;;5.07;3.60;;;-12.60;79.70;;;;;;4367084;32;20077;-57
2021/03/12 02:15:05;;;;;;;5.93;3.17;;;-12.60;80.00;;;;;;4392116;32;20065;-58
2021/03/12 02:18:20;;;;;;;5.40;3.15;;;-12.50;79.50;;;;;;4391748;32;20493;-57
2021/03/12 02:20:57;;;;;;;5.30;3.45;;;-12.40;78.90;;;;;;4375484;32;20096;-57
2021/03/12 02:23:51;;;;;;;5.18;3.40;;;-12.70;79.70;;;;;;4379432;32;20508;-59
2021/03/12 02:26:42;;;;;;;6.93;3.37;;;-12.30;79.20;;;;;;4391650;32;20201;-57
2021/03/12 02:29:12;;;;;;;7.07;3.50;;;-12.30;78.80;;;;;;4393443;32;20057;-58
2021/03/12 02:31:39;;;;;;;7.65;3.45;;;-12.30;78.70;;;;;;4379333;32;20523;-57
2021/03/12 02:34:10;;;;;;;4.82;3.22;;;-12.20;78.30;;;;;;4378476;32;20499;-58
2021/03/12 02:36:38;;;;;;;6.22;3.50;;;-12.30;78.40;;;;;;4379360;32;20081;-58
2021/03/12 02:39:06;;;;;;;7.30;3.40;;;-12.50;79.00;;;;;;4391523;32;20066;-59
2021/03/12 02:41:32;;;;;;;7.68;3.55;;;-12.40;79.40;;;;;;4379209;32;20068;-59
2021/03/12 02:43:59;;;;;;;5.47;3.50;;;-12.30;79.00;;;;;;4366624;32;20477;-58
2021/03/12 02:46:25;;;;;;;5.30;3.55;;;-12.30;78.40;;;;;;4367666;32;20066;-57
2021/03/12 02:48:51;;;;;;;6.45;3.50;;;-12.40;78.90;;;;;;4368404;32;20181;-58
2021/03/12 02:51:18;;;;;;;7.37;3.90;;;-12.60;79.40;;;;;;4385364;32;20064;-57
2021/03/12 02:53:46;;;;;;;5.72;3.47;;;-12.50;79.10;;;;;;4383054;32;20070;-58
2021/03/12 02:56:12;;;;;;;8.63;3.55;;;-12.50;79.10;;;;;;4368762;32;20156;-56
2021/03/12 02:58:38;;;;;;;5.70;3.42;;;-12.60;79.00;;;;;;4389225;32;20181;-57
2021/03/12 03:01:08;;;;;;;5.75;3.17;;;-12.60;78.90;;;;;;4367628;32;20082;-58
2021/03/12 03:03:36;;;;;;;5.72;3.50;;;-12.70;79.10;;;;;;4389213;32;20150;-58
2021/03/12 03:06:04;;;;;;;5.95;3.58;;;-12.70;79.20;;;;;;4373816;32;20188;-58
2021/03/12 03:08:31;;;;;;;4.82;2.85;;;-12.70;79.30;;;;;;4393866;32;20085;-58
2021/03/12 03:10:59;;;;;;;5.50;3.67;;;-12.70;79.30;;;;;;4385752;32;20497;-57
2021/03/12 03:13:36;;;;;;;5.90;3.60;;;-12.60;79.10;;;;;;4380087;32;20065;-57
2021/03/12 03:16:07;;;;;;;5.68;3.37;;;-12.70;79.30;;;;;;4372641;32;20080;-57
2021/03/12 03:18:38;;;;;;;4.53;3.05;;;-12.80;79.40;;;;;;4380674;32;20113;-58
2021/03/12 03:21:05;;;;;;;6.45;3.62;;;-12.70;78.90;;;;;;4385050;32;20463;-57
2021/03/12 03:23:34;;;;;;;5.30;3.50;;;-12.70;78.90;;;;;;4384977;32;20159;-58
2021/03/12 03:26:00;;;;;;;6.05;3.37;;;-12.70;78.60;;;;;;4384269;32;20062;-58
2021/03/12 03:28:26;;;;;;;5.47;3.33;;;-12.70;78.60;;;;;;4370871;32;20570;-63
2021/03/12 03:30:53;;;;;;;5.05;3.53;;;-12.60;78.30;;;;;;4383362;32;20150;-58
2021/03/12 03:33:19;;;;;;;6.00;3.33;;;-12.60;78.10;;;;;;4398167;32;20081;-59
2021/03/12 03:35:45;;;;;;;6.10;3.35;;;-12.50;78.00;;;;;;4398020;32;20078;-57
2021/03/12 03:38:11;;;;;;;6.32;3.70;;;-12.60;78.00;;;;;;4384454;32;20612;-58
2021/03/12 03:40:37;;;;;;;6.47;3.83;;;-12.60;78.10;;;;;;4370798;32;20141;-57
2021/03/12 03:43:04;;;;;;;5.35;3.65;;;-12.60;78.10;;;;;;4369662;32;20562;-59
2021/03/12 03:45:31;;;;;;;7.15;4.28;;;-12.80;78.20;;;;;;4367804;32;20171;-58
2021/03/12 03:47:58;;;;;;;4.87;3.35;;;-12.80;78.50;;;;;;4379090;32;20058;-58
2021/03/12 03:50:25;;;;;;;6.78;3.58;;;-12.80;78.30;;;;;;4390622;32;20085;-57
2021/03/12 03:52:51;;;;;;;5.05;3.50;;;-12.70;78.20;;;;;;4393368;32;20161;-57
2021/03/12 03:55:23;;;;;;;5.65;3.62;;;-12.60;78.00;;;;;;4393098;32;20069;-57
2021/03/12 04:00:23;;;;;;;5.27;3.30;;;-12.80;77.90;;;;;;3816326;37;20044;-58
2021/03/12 04:02:49;;;;;;;5.25;3.40;;;-12.60;77.90;;;;;;4350882;32;20081;-58
2021/03/12 04:05:16;;;;;;;4.78;3.10;;;-12.50;77.70;;;;;;4351009;32;20085;-59
2021/03/12 04:07:43;;;;;;;4.28;2.45;;;-12.40;77.10;;;;;;4361112;32;20100;-58
2021/03/12 04:10:10;;;;;;;4.35;2.45;;;-12.40;76.80;;;;;;4353676;32;20097;-57
2021/03/12 04:12:37;;;;;;;4.68;3.17;;;-12.30;76.70;;;;;;4390190;32;20136;-58
2021/03/12 04:15:06;;;;;;;3.87;2.67;;;-12.30;76.70;;;;;;4365867;32;20126;-57
2021/03/12 04:17:33;;;;;;;5.32;2.78;;;-12.10;76.00;;;;;;4375269;32;20085;-57
2021/03/12 04:19:59;;;;;;;4.10;2.58;;;-11.90;75.30;;;;;;4363346;32;20093;-58
2021/03/12 04:22:25;;;;;;;5.32;2.70;;;-11.90;75.20;;;;;;4363046;32;20081;-57
2021/03/12 04:24:51;;;;;;;5.62;2.70;;;-11.70;74.60;;;;;;4375087;32;20508;-58
2021/03/12 04:27:18;;;;;;;5.12;3.00;;;-11.70;74.40;;;;;;4365660;32;20097;-57
2021/03/12 04:29:44;;;;;;;4.45;2.55;;;-11.60;74.00;;;;;;4353703;32;20496;-58
2021/03/12 04:32:11;;;;;;;3.92;2.47;;;-11.50;73.70;;;;;;4364325;32;20093;-61
2021/03/12 04:34:37;;;;;;;4.25;2.75;;;-11.50;73.50;;;;;;4337844;32;20508;-58
2021/03/12 04:37:03;;;;;;;5.18;2.62;;;-11.30;73.20;;;;;;4350115;32;20463;-57
2021/03/12 04:39:29;;;;;;;3.78;2.67;;;-11.30;72.90;;;;;;4362589;32;20058;-57
2021/03/12 04:41:56;;;;;;;4.37;2.78;;;-11.30;72.90;;;;;;4350184;32;20074;-58
2021/03/12 04:44:22;;;;;;;4.12;2.75;;;-11.10;72.80;;;;;;4338187;32;20070;-58
2021/03/12 04:46:48;;;;;;;6.47;2.53;;;-11.00;72.30;;;;;;4375012;32;20066;-58
2021/03/12 04:49:14;;;;;;;7.78;4.55;;;-10.90;71.70;;;;;;4347115;32;20071;-57
2021/03/12 04:51:44;;;;;;;4.95;3.03;;;-10.60;70.80;;;;;;4357424;32;20070;-57
2021/03/12 04:54:12;;;;;;;5.40;3.20;;;-10.50;70.40;;;;;;4349627;32;20066;-57
2021/03/12 04:56:39;;;;;;;5.82;3.33;;;-10.60;71.30;;;;;;4335711;32;20062;-58
2021/03/12 04:59:05;;;;;;;4.32;2.80;;;-10.60;71.20;;;;;;4345031;32;20067;-57
2021/03/12 05:01:33;;;;;;;5.78;3.12;;;-10.70;71.20;;;;;;4332582;32;20537;-57
2021/03/12 05:06:40;;;;;;;6.28;3.70;;;-10.50;71.10;;;;;;3844429;37;20254;-59
2021/03/12 05:09:12;;;;;;;6.03;3.25;;;-10.40;70.90;;;;;;4400208;32;20074;-58
2021/03/12 05:11:42;;;;;;;6.30;3.78;;;-10.20;70.00;;;;;;4374358;32;20066;-57
2021/03/12 05:14:14;;;;;;;3.92;2.53;;;-10.00;69.10;;;;;;4371398;32;20070;-58
2021/03/12 05:16:41;;;;;;;4.78;2.58;;;-9.90;67.90;;;;;;4393666;32;20136;-58
2021/03/12 05:19:08;;;;;;;5.97;3.67;;;-9.70;66.80;;;;;;4368057;32;20576;-60
2021/03/12 05:21:34;;;;;;;3.58;2.37;;;-8.10;64.80;;;;;;4378247;32;20141;-59
2021/03/12 05:24:00;;;;;;;5.15;2.78;;;-6.40;55.70;;;;;;4378262;32;20089;-59
2021/03/12 05:26:27;;;;;;;3.97;2.72;;;-6.60;53.00;;;;;;4377800;32;20084;-58
2021/03/12 05:28:53;;;;;;;6.40;3.22;;;-6.50;53.20;;;;;;4366194;32;20502;-58
2021/03/12 05:31:30;;;;;;;5.68;2.85;;;-6.10;52.10;;;;;;4377705;32;20084;-58
2021/03/12 05:33:56;;;;;;;5.90;3.30;;;-6.40;50.50;;;;;;4374176;32;20460;-57
2021/03/12 05:36:23;;;;;;;4.55;2.97;;;-5.80;50.80;;;;;;4388646;32;20061;-58
2021/03/12 05:38:49;;;;;;;7.25;3.30;;;-6.30;50.60;;;;;;4375564;32;20080;-57
2021/03/12 05:41:15;;;;;;;4.90;3.20;;;-6.00;50.20;;;;;;4375716;32;20516;-58
2021/03/12 05:43:45;;;;;;;4.62;2.87;;;-5.20;48.60;;;;;;4362999;32;20070;-57
2021/03/12 05:46:11;;;;;;;4.15;2.80;;;-5.20;47.60;;;;;;4350244;32;20084;-57
2021/03/12 05:48:37;;;;;;;4.50;3.00;;;-5.70;47.40;;;;;;4370166;32;20070;-57
2021/03/12 05:51:04;;;;;;;6.97;3.08;;;-5.40;47.50;;;;;;4375432;32;20562;-59
2021/03/12 05:53:31;;;;;;;5.20;2.75;;;-5.10;46.10;;;;;;4362831;32;20074;-57
2021/03/12 05:55:57;;;;;;;5.40;2.72;;;-5.10;46.10;;;;;;4381031;32;20073;-58
2021/03/12 05:58:24;;;;;;;5.00;2.65;;;-6.30;47.00;;;;;;4365053;32;20069;-58
2021/03/12 06:00:50;;;;;;;5.37;2.90;;;-6.20;48.30;;;;;;4366335;32;20085;-58
2021/03/12 06:03:16;;;;;;;5.45;3.10;;;-6.20;48.50;;;;;;4372017;32;20077;-58
2021/03/12 06:05:44;;;;;;;3.78;2.72;;;-5.20;46.90;;;;;;4375520;32;20560;-59
2021/03/12 06:08:11;;;;;;;5.62;2.60;;;-5.90;46.60;;;;;;4375622;32;20077;-57
2021/03/12 06:10:37;;;;;;;5.50;3.05;;;-5.70;47.80;;;;;;4365137;32;20092;-57
2021/03/12 06:13:04;;;;;;;4.60;2.80;;;-4.90;47.20;;;;;;4371746;32;20166;-59
2021/03/12 06:15:38;;;;;;;4.70;2.80;;;-5.70;46.30;;;;;;4365956;32;20086;-60
2021/03/12 06:18:24;;;;;;;5.82;2.90;;;-5.00;44.90;;;;;;4370260;32;20637;-58
2021/03/12 06:20:54;;;;;;;5.20;3.25;;;-4.80;45.40;;;;;;4387258;32;20093;-59
2021/03/12 06:23:40;;;;;;;5.65;2.78;;;-7.00;51.20;;;;;;4351818;32;20542;-59
2021/03/12 06:26:06;;;;;;;4.60;3.00;;;-7.90;54.60;;;;;;4364416;32;20176;-59
2021/03/12 06:28:33;;;;;;;5.50;3.25;;;-7.60;55.90;;;;;;4388604;32;20082;-59
2021/03/12 06:30:59;;;;;;;6.10;3.25;;;-7.30;55.80;;;;;;4375168;32;20103;-59
2021/03/12 06:33:25;;;;;;;6.35;3.03;;;-7.50;55.80;;;;;;4359018;32;20454;-60
2021/03/12 06:35:53;;;;;;;4.57;2.97;;;-7.50;55.80;;;;;;4391664;32;20097;-62
2021/03/12 06:38:19;;;;;;;4.97;3.15;;;-7.10;55.20;;;;;;4368451;32;20178;-59
2021/03/12 06:40:45;;;;;;;5.80;2.90;;;-6.90;54.80;;;;;;4360695;32;20070;-59
2021/03/12 06:43:13;;;;;;;5.15;3.00;;;-7.30;54.00;;;;;;4383565;32;20190;-60
2021/03/12 06:45:42;;;;;;;5.70;3.00;;;-7.20;54.20;;;;;;4366536;32;20067;-59
2021/03/12 06:48:23;;;;;;;7.15;3.12;;;-6.80;54.60;;;;;;4351336;32;20094;-59
2021/03/12 06:51:01;;;;;;;6.93;3.47;;;-6.90;54.00;;;;;;4351032;32;20081;-59
2021/03/12 06:53:38;;;;;;;7.80;3.53;;;-6.60;53.50;;;;;;4364983;32;20074;-59
2021/03/12 06:56:10;;;;;;;7.47;3.30;;;-6.60;53.50;;;;;;4365060;32;20073;-60
2021/03/12 06:58:36;;;;;;;5.78;3.30;;;-6.50;53.00;;;;;;4350180;32;20147;-58
2021/03/12 07:01:20;;;;;;;5.15;3.47;;;-6.60;53.80;;;;;;4365162;32;20069;-57
2021/03/12 07:06:26;;;;;;;7.83;3.40;;;-6.40;52.20;;;;;;3817841;37;20063;-58
2021/03/12 07:08:52;;;;;;;6.45;3.60;;;-6.30;52.90;;;;;;4358873;32;20149;-56
2021/03/12 07:11:19;;;;;;;9.15;3.60;;;-6.50;52.00;;;;;;4381265;32;20139;-58
2021/03/12 07:13:47;;;;;;;5.90;3.80;;;-6.30;51.70;;;;;;4377849;32;20160;-59
2021/03/12 07:16:13;;;;;;;7.37;4.10;;;-6.50;52.70;;;;;;4366748;32;20085;-59
2021/03/12 07:18:40;;;;;;;6.60;3.95;;;-5.80;53.20;;;;;;4367639;32;20077;-59
2021/03/12 07:21:07;;;;;;;7.15;3.90;;;-6.00;52.40;;;;;;4362485;32;20093;-58
2021/03/12 07:23:37;;;;;;;6.90;3.65;;;-5.80;51.00;;;;;;4367300;32;20086;-58
2021/03/12 07:26:08;;;;;;;10.20;4.37;;;-5.30;50.60;;;;;;4354583;32;20145;-60
2021/03/12 07:28:34;;;;;;;11.12;4.68;;;-5.60;50.30;;;;;;4358949;32;20090;-60
2021/03/12 07:31:05;;;;;;;6.90;4.25;;;-5.30;50.80;;;;;;4350576;32;20500;-59
2021/03/12 07:33:35;;;;;;;10.68;4.15;;;-4.80;49.70;;;;;;4367808;32;20070;-58
2021/03/12 07:36:03;;;;;;;9.15;4.07;;;-5.30;49.80;;;;;;4349400;32;20074;-59
2021/03/12 07:38:35;;;;;;;7.40;4.28;;;-5.20;50.60;;;;;;4347563;32;20082;-58
2021/03/12 07:41:06;;;;;;;11.15;4.87;;;-5.20;50.00;;;;;;4323529;32;20086;-58
2021/03/12 07:43:37;;;;;;;8.93;4.20;;;-4.90;50.40;;;;;;4344262;32;20501;-57
2021/03/12 07:46:06;;;;;;;10.98;4.50;;;-4.70;49.20;;;;;;4346765;32;20102;-56
2021/03/12 07:48:32;;;;;;;9.65;5.03;;;-4.80;48.20;;;;;;4353551;32;20081;-57
2021/03/12 07:51:09;;;;;;;10.43;4.45;;;-5.20;49.40;;;;;;4347343;32;20070;-56
2021/03/12 07:53:51;;;;;;;12.02;4.28;;;-4.90;49.30;;;;;;4336106;32;20098;-56
2021/03/12 07:56:18;;;;;;;10.32;3.92;;;-4.80;49.30;;;;;;4347914;32;20074;-57
2021/03/12 07:58:52;;;;;;;13.38;4.65;;;-4.30;48.70;;;;;;4334815;32;20139;-58
2021/03/12 08:01:22;;;;;;;16.40;5.75;;;-4.60;47.50;;;;;;4348354;32;20065;-55
2021/03/12 08:03:50;;;;;;;16.48;4.70;;;-5.10;47.60;;;;;;4351840;32;20492;-57
2021/03/12 08:06:20;;;;;;;12.68;5.20;;;-5.00;48.10;;;;;;4327328;32;20093;-57
2021/03/12 08:08:48;;;;;;;10.93;5.55;;;-4.90;49.50;;;;;;4375386;32;20074;-56
2021/03/12 08:11:33;;;;;;;17.27;6.50;;;-4.70;48.30;;;;;;4358390;32;20186;-61
2021/03/12 08:14:09;;;;;;;11.80;5.68;;;-4.60;46.80;;;;;;4344827;32;20109;-60
2021/03/12 08:16:37;;;;;;;13.30;5.60;;;-4.30;48.70;;;;;;4350251;32;20093;-60
2021/03/12 08:19:39;;;;;;;18.92;6.03;;;-4.20;46.90;;;;;;4345794;32;20107;-64
2021/03/12 08:22:27;;;;;;;15.50;6.05;;;-4.60;48.60;;;;;;4353378;32;20089;-59
2021/03/12 08:24:56;;;;;;;15.93;6.30;;;-4.30;46.80;;;;;;4359107;32;20102;-60
2021/03/12 08:27:45;;;;;;;18.95;6.18;;;-4.20;48.60;;;;;;4310789;32;20175;-60
2021/03/12 08:30:21;;;;;;;13.05;5.97;;;-4.10;48.40;;;;;;4366194;32;20199;-59
2021/03/12 08:32:47;;;;;;;13.23;5.97;;;-4.30;46.60;;;;;;4343218;32;20667;-60
2021/03/12 08:35:35;;;;;;;10.25;4.97;;;-4.20;48.80;;;;;;4327495;32;20114;-59
2021/03/12 08:38:04;;;;;;;12.82;5.45;;;-4.50;46.90;;;;;;4341379;32;20109;-58
2021/03/12 08:40:34;;;;;;;11.02;4.47;;;-3.90;47.00;;;;;;4339932;32;20105;-60
2021/03/12 08:43:05;;;;;;;11.18;4.75;;;-4.10;50.00;;;;;;4325474;32;20476;-60
2021/03/12 08:45:47;;;;;;;10.85;5.00;;;-4.10;48.10;;;;;;4324021;32;20195;-60
2021/03/12 08:48:21;;;;;;;11.05;4.05;;;-3.90;46.00;;;;;;4342103;32;20098;-60
2021/03/12 08:50:57;;;;;;;11.75;4.10;;;-3.70;47.80;;;;;;4332316;32;20102;-61
2021/03/12 08:53:25;;;;;;;7.65;3.30;;;-3.60;48.20;;;;;;4331229;32;20106;-60
2021/03/12 08:55:54;;;;;;;11.75;3.45;;;-3.80;47.30;;;;;;4320849;32;20086;-61
2021/03/12 08:58:26;;;;;;;12.43;4.40;;;-3.30;45.50;;;;;;4323073;32;20112;-62
2021/03/12 09:00:56;;;;;;;10.00;3.75;;;-3.10;44.30;;;;;;4310506;32;20166;-61
2021/03/12 09:03:34;;;;;;;8.63;3.03;;;-3.20;43.90;;;;;;4321044;32;20105;-60
2021/03/12 09:06:11;;;;;;;8.05;3.42;;;-3.20;44.60;;;;;;4322291;32;20102;-60
2021/03/12 09:08:39;;;;;;;9.70;3.05;;;-3.00;44.30;;;;;;4329937;32;20106;-60
2021/03/12 09:11:07;;;;;;;11.32;4.10;;;-2.70;42.70;;;;;;4320663;32;20112;-60
2021/03/12 09:13:38;;;;;;;11.73;3.47;;;-3.00;45.00;;;;;;4331356;32;20094;-60
2021/03/12 09:16:06;;;;;;;9.55;3.30;;;-3.20;44.20;;;;;;4334516;32;20110;-60
2021/03/12 09:18:33;;;;;;;12.37;3.60;;;-3.10;44.20;;;;;;4310686;32;20181;-61
2021/03/12 09:21:02;;;;;;;9.25;3.37;;;-2.70;42.50;;;;;;4332630;32;20094;-61
2021/03/12 09:23:47;;;;;;;7.28;3.40;;;-2.50;42.60;;;;;;4319855;32;20114;-62
2021/03/12 09:26:19;;;;;;;9.77;3.75;;;-2.60;42.10;;;;;;4319691;32;20109;-60
2021/03/12 09:28:46;;;;;;;11.60;4.20;;;-2.70;41.90;;;;;;4312812;32;20657;-60
2021/03/12 09:31:14;;;;;;;11.52;4.00;;;-2.60;42.80;;;;;;4325169;32;20106;-60
2021/03/12 09:33:46;;;;;;;8.68;3.65;;;-2.90;42.00;;;;;;4335543;32;20090;-59
2021/03/12 09:36:36;;;;;;;8.45;4.07;;;-2.70;42.10;;;;;;4336020;32;20620;-59
2021/03/12 09:39:12;;;;;;;6.85;3.20;;;-3.00;41.90;;;;;;4331888;32;20132;-61
2021/03/12 09:41:52;;;;;;;6.62;3.33;;;-2.80;44.10;;;;;;4342904;32;20589;-60
2021/03/12 09:44:18;;;;;;;11.85;4.12;;;-2.70;43.30;;;;;;4352731;32;20102;-63
2021/03/12 09:46:58;;;;;;;7.62;4.05;;;-2.80;42.00;;;;;;4314560;32;20096;-60
2021/03/12 09:49:30;;;;;;;8.68;4.68;;;-2.50;41.90;;;;;;4316937;32;20101;-61
2021/03/12 09:51:59;;;;;;;7.35;4.03;;;-2.20;42.20;;;;;;4317614;32;20097;-64
2021/03/12 09:54:27;;;;;;;8.73;4.15;;;-2.10;40.30;;;;;;4299223;32;20622;-61
2021/03/12 09:56:54;;;;;;;9.23;4.30;;;-2.00;40.30;;;;;;4318988;32;20099;-61
2021/03/12 09:59:29;;;;;;;9.30;4.18;;;-1.60;40.60;;;;;;4320076;32;20125;-62
2021/03/12 10:02:09;;;;;;;6.05;2.97;;;-2.40;41.80;;;;;;4308887;32;20105;-62
2021/03/12 10:04:43;;;;;;;7.72;3.15;;;-2.60;41.00;;;;;;4333707;32;20126;-62
2021/03/12 10:07:11;;;;;;;6.82;2.90;;;-2.10;40.40;;;;;;4325085;32;20204;-62
2021/03/12 10:09:46;;;;;;;5.70;3.03;;;-2.70;41.80;;;;;;4317479;32;20540;-64
2021/03/12 10:12:26;;;;;;;8.90;3.08;;;-2.70;43.50;;;;;;4321595;32;20110;-64
2021/03/12 10:15:17;;;;;;;8.90;3.50;;;-2.50;42.80;;;;;;4336519;32;20094;-60
2021/03/12 10:17:44;;;;;;;5.12;3.03;;;-2.40;42.90;;;;;;4341894;32;20066;-61
2021/03/12 10:20:25;;;;;;;9.05;3.12;;;-1.80;43.60;;;;;;4340469;32;20063;-62
2021/03/12 10:22:57;;;;;;;6.03;3.10;;;-2.00;41.60;;;;;;4347598;32;20108;-59
2021/03/12 10:25:42;;;;;;;8.40;3.80;;;-2.90;42.00;;;;;;4327613;32;20098;-60
2021/03/12 10:28:11;;;;;;;7.05;2.90;;;-2.40;43.50;;;;;;4317782;32;20110;-63
2021/03/12 10:30:49;;;;;;;5.93;2.95;;;-2.40;42.20;;;;;;4320104;32;20103;-61
2021/03/12 10:33:23;;;;;;;7.20;2.70;;;-2.10;42.00;;;;;;4309598;32;20576;-60
2021/03/12 10:35:51;;;;;;;6.97;2.80;;;-2.20;40.30;;;;;;4315288;32;20094;-61
2021/03/12 10:38:25;;;;;;;5.75;2.95;;;-2.40;43.00;;;;;;4341875;32;20093;-61
2021/03/12 10:40:53;;;;;;;4.20;2.67;;;-1.80;39.60;;;;;;4319842;32;20203;-63
2021/03/12 10:43:24;;;;;;;7.00;3.03;;;-2.10;39.70;;;;;;4325936;32;20078;-59
2021/03/12 10:46:04;;;;;;;6.62;3.25;;;-1.90;40.80;;;;;;4340416;32;20182;-62
2021/03/12 10:48:42;;;;;;;4.65;2.40;;;-1.90;39.60;;;;;;4320031;32;20665;-62
2021/03/12 10:51:09;;;;;;;4.55;2.83;;;-1.40;40.30;;;;;;4326738;32;20101;-61
2021/03/12 10:53:55;;;;;;;5.68;2.78;;;-1.40;37.70;;;;;;4327089;32;20542;-64
2021/03/12 10:56:23;;;;;;;5.12;2.50;;;-1.60;38.80;;;;;;4340462;32;20098;-59
2021/03/12 10:58:50;;;;;;;6.75;3.33;;;-1.50;40.20;;;;;;4311910;32;20296;-61
2021/03/12 11:01:38;;;;;;;3.15;2.25;;;-1.70;39.70;;;;;;4325748;32;20089;-61
2021/03/12 11:04:08;;;;;;;5.87;2.35;;;-2.40;41.60;;;;;;4324159;32;20095;-63
2021/03/12 11:06:39;;;;;;;5.37;2.55;;;-2.10;41.70;;;;;;4311198;32;20082;-60
2021/03/12 11:09:09;;;;;;;4.15;2.80;;;-1.60;39.80;;;;;;4326627;32;20114;-63
2021/03/12 11:11:36;;;;;;;10.00;2.67;;;-1.90;41.40;;;;;;4310648;32;20090;-60
2021/03/12 11:14:03;;;;;;;5.22;2.78;;;-2.00;39.70;;;;;;4317199;32;20171;-60
2021/03/12 11:16:29;;;;;;;4.93;2.22;;;-1.50;39.60;;;;;;4340168;32;20299;-62
2021/03/12 11:18:55;;;;;;;5.50;2.33;;;-1.40;39.60;;;;;;4318730;32;20568;-63
2021/03/12 11:21:24;;;;;;;6.20;3.05;;;-1.60;40.20;;;;;;4332858;32;20146;-62
2021/03/12 11:23:50;;;;;;;4.68;2.65;;;-2.00;41.20;;;;;;4337857;32;20091;-62
2021/03/12 11:26:18;;;;;;;6.20;2.40;;;-1.60;41.50;;;;;;4329398;32;20086;-60
2021/03/12 11:28:44;;;;;;;3.53;2.33;;;-1.30;39.30;;;;;;4325552;32;20103;-61
2021/03/12 11:31:13;;;;;;;5.43;2.60;;;-1.40;39.30;;;;;;4348208;32;20109;-59
2021/03/12 11:33:39;;;;;;;4.00;2.45;;;-1.20;40.30;;;;;;4355159;32;20067;-64
2021/03/12 11:36:07;;;;;;;5.22;2.78;;;-1.40;36.70;;;;;;4344271;32;20198;-62
2021/03/12 11:38:35;;;;;;;4.65;2.40;;;-1.40;38.40;;;;;;4341342;32;20647;-63
2021/03/12 11:41:01;;;;;;;5.30;2.47;;;-1.10;38.30;;;;;;4339781;32;20109;-61
2021/03/12 11:43:27;;;;;;;4.25;2.53;;;-1.20;39.40;;;;;;4324542;32;20129;-61
2021/03/12 11:45:54;;;;;;;6.82;2.85;;;-1.50;40.10;;;;;;4309328;32;20279;-61
2021/03/12 11:48:22;;;;;;;5.25;3.10;;;-1.40;39.60;;;;;;4330358;32;20355;-61
2021/03/12 11:50:48;;;;;;;5.57;2.70;;;-1.40;38.40;;;;;;4328817;32;20113;-64
2021/03/12 11:53:14;;;;;;;4.65;2.30;;;-1.50;37.30;;;;;;4343247;32;20101;-60
2021/03/12 11:55:41;;;;;;;5.37;3.05;;;-1.00;37.20;;;;;;4333032;32;20099;-62
2021/03/12 11:58:07;;;;;;;5.70;2.83;;;-0.70;36.70;;;;;;4345084;32;20171;-63
2021/03/12 12:00:35;;;;;;;6.57;2.55;;;-1.20;39.60;;;;;;4338051;32;20121;-61
2021/03/12 12:03:02;;;;;;;4.65;2.80;;;-1.10;37.50;;;;;;4347822;32;20190;-60
2021/03/12 12:05:28;;;;;;;7.05;2.67;;;-0.70;41.10;;;;;;4323630;32;20186;-60
2021/03/12 12:07:54;;;;;;;6.53;2.72;;;-0.70;39.40;;;;;;4344093;32;20093;-59
2021/03/12 12:10:21;;;;;;;6.85;3.00;;;-0.70;39.90;;;;;;4354486;32;20911;-61
2021/03/12 12:12:48;;;;;;;5.80;3.00;;;-0.70;37.60;;;;;;4346080;32;20098;-60
2021/03/12 12:15:18;;;;;;;6.82;2.53;;;-1.20;38.00;;;;;;4346383;32;20561;-60
2021/03/12 12:17:47;;;;;;;6.65;2.70;;;-0.70;37.30;;;;;;4341151;32;20129;-62
2021/03/12 12:20:15;;;;;;;5.30;2.70;;;-1.20;42.00;;;;;;4321133;32;20578;-59
2021/03/12 12:22:43;;;;;;;7.00;3.10;;;-0.90;37.90;;;;;;4309904;32;20118;-62
2021/03/12 12:25:09;;;;;;;4.90;2.75;;;-0.90;38.70;;;;;;4340196;32;20479;-60
2021/03/12 12:27:36;;;;;;;7.03;3.15;;;-0.70;37.40;;;;;;4328611;32;20178;-60
2021/03/12 12:30:04;;;;;;;4.47;2.75;;;-0.50;38.40;;;;;;4341430;32;20109;-64
2021/03/12 12:32:30;;;;;;;8.02;3.00;;;-1.00;37.00;;;;;;4331464;32;20116;-64
2021/03/12 12:34:56;;;;;;;5.80;3.22;;;-0.60;41.10;;;;;;4315792;32;20158;-60
2021/03/12 12:37:23;;;;;;;5.50;3.15;;;-1.10;44.00;;;;;;4339703;32;20791;-63
2021/03/12 12:39:49;;;;;;;4.97;2.33;;;-0.80;40.80;;;;;;4353770;32;20539;-62
2021/03/12 12:42:15;;;;;;;6.57;3.00;;;-1.20;37.80;;;;;;4330768;32;20097;-60
2021/03/12 12:44:42;;;;;;;6.18;3.65;;;-0.90;39.20;;;;;;4338255;32;20112;-64
2021/03/12 12:47:08;;;;;;;6.25;3.45;;;-1.00;39.00;;;;;;4303382;32;20556;-60
2021/03/12 12:49:34;;;;;;;7.97;3.00;;;-1.10;40.80;;;;;;4332384;32;20207;-61
2021/03/12 12:52:00;;;;;;;5.32;2.70;;;-1.40;39.10;;;;;;4347570;32;20090;-64
2021/03/12 12:54:26;;;;;;;3.87;2.58;;;-1.30;39.70;;;;;;4339635;32;20109;-59
2021/03/12 12:56:53;;;;;;;6.80;3.30;;;-1.20;38.70;;;;;;4329900;32;20247;-59
2021/03/12 12:59:19;;;;;;;5.32;2.80;;;-1.00;40.70;;;;;;4330720;32;20533;-60
2021/03/12 13:01:45;;;;;;;7.93;3.90;;;-1.20;37.50;;;;;;4341744;32;20094;-61